Terminal Aerodrome Forecast
Issued by NWS Charleston, WV

Current Version | Previous Version | Graphics & Text | Print | Product List | Glossary On
Versions: 1 2 3 4 5 6 7 8 9 10 11 12 13 14 15 16 17 18 19 20 21 22 23 24 25 26 27 28
000
FTUS41 KRLX 250200 AAA
TAFPKB
TAF AMD
KPKB 250224Z 2502/2524 00000KT P6SM SKC
     FM250900 00000KT 5SM BR SCT050
     FM251300 22006KT P6SM SCT025
     FM251700 23008KT P6SM BKN035=

USA.gov is the U.S. government's official web portal to all federal, state and local government web resources and services.